sensor_id;sensor_type;location;lat;lon;timestamp;pressure;altitude;pressure_sealevel;temperature;humidity
54022;BME280;39936;51.058;17.220;2023-04-16T00:03:25;101397.08;;;7.66;100.00
54022;BME280;39936;51.058;17.220;2023-04-16T00:07:09;101395.00;;;7.63;100.00
54022;BME280;39936;51.058;17.220;2023-04-16T00:11:11;101406.97;;;7.69;100.00
54022;BME280;39936;51.058;17.220;2023-04-16T00:15:24;101400.84;;;7.68;100.00
54022;BME280;39936;51.058;17.220;2023-04-16T00:23:27;101401.05;;;7.58;100.00
54022;BME280;39936;51.058;17.220;2023-04-16T00:27:28;101364.10;;;7.27;100.00
54022;BME280;39936;51.058;17.220;2023-04-16T00:30:47;101399.73;;;7.37;100.00
54022;BME280;39936;51.058;17.220;2023-04-16T00:34:43;101400.49;;;7.32;100.00
54022;BME280;39936;51.058;17.220;2023-04-16T00:38:32;101403.95;;;7.33;100.00
54022;BME280;39936;51.058;17.220;2023-04-16T00:45:49;101406.87;;;7.10;100.00
54022;BME280;39936;51.058;17.220;2023-04-16T00:49:43;101408.76;;;6.94;100.00
54022;BME280;39936;51.058;17.220;2023-04-16T00:54:16;101411.87;;;6.76;100.00
54022;BME280;39936;51.058;17.220;2023-04-16T00:58:34;101417.99;;;6.56;100.00
54022;BME280;39936;51.058;17.220;2023-04-16T01:06:12;101421.53;;;6.39;100.00
54022;BME280;39936;51.058;17.220;2023-04-16T01:09:49;101420.34;;;6.39;100.00
54022;BME280;39936;51.058;17.220;2023-04-16T01:13:35;101426.10;;;6.36;100.00
54022;BME280;39936;51.058;17.220;2023-04-16T01:25:46;101438.78;;;6.21;100.00
54022;BME280;39936;51.058;17.220;2023-04-16T01:29:07;101443.82;;;6.25;100.00
54022;BME280;39936;51.058;17.220;2023-04-16T01:33:01;101448.93;;;6.33;100.00
54022;BME280;39936;51.058;17.220;2023-04-16T01:40:29;101452.76;;;6.24;100.00
54022;BME280;39936;51.058;17.220;2023-04-16T01:44:21;101451.30;;;6.26;100.00
54022;BME280;39936;51.058;17.220;2023-04-16T01:48:08;101451.79;;;6.22;100.00
54022;BME280;39936;51.058;17.220;2023-04-16T01:51:49;101449.94;;;6.23;100.00
54022;BME280;39936;51.058;17.220;2023-04-16T01:55:49;101430.15;;;6.14;100.00
54022;BME280;39936;51.058;17.220;2023-04-16T01:59:30;101447.50;;;6.28;100.00
54022;BME280;39936;51.058;17.220;2023-04-16T02:03:30;101446.04;;;6.26;100.00
54022;BME280;39936;51.058;17.220;2023-04-16T02:23:01;101462.10;;;6.03;100.00
54022;BME280;39936;51.058;17.220;2023-04-16T02:26:45;101462.34;;;5.84;100.00
54022;BME280;39936;51.058;17.220;2023-04-16T02:30:39;101468.26;;;5.65;100.00
54022;BME280;39936;51.058;17.220;2023-04-16T02:34:57;101469.62;;;5.54;100.00
54022;BME280;39936;51.058;17.220;2023-04-16T02:38:44;101468.82;;;5.54;100.00
54022;BME280;39936;51.058;17.220;2023-04-16T02:42:27;101474.16;;;5.54;100.00
54022;BME280;39936;51.058;17.220;2023-04-16T02:46:44;101477.24;;;5.47;100.00
54022;BME280;39936;51.058;17.220;2023-04-16T02:50:25;101485.08;;;5.27;100.00
54022;BME280;39936;51.058;17.220;2023-04-16T02:53:49;101476.72;;;5.02;100.00
54022;BME280;39936;51.058;17.220;2023-04-16T02:57:41;101499.35;;;5.14;100.00
54022;BME280;39936;51.058;17.220;2023-04-16T03:01:22;101458.40;;;5.00;100.00
54022;BME280;39936;51.058;17.220;2023-04-16T03:05:03;101488.66;;;5.35;100.00
54022;BME280;39936;51.058;17.220;2023-04-16T03:08:53;101498.14;;;5.42;100.00
54022;BME280;39936;51.058;17.220;2023-04-16T03:13:04;101498.10;;;5.45;100.00
54022;BME280;39936;51.058;17.220;2023-04-16T03:16:45;101503.66;;;5.45;100.00
54022;BME280;39936;51.058;17.220;2023-04-16T03:20:51;101504.29;;;5.41;100.00
54022;BME280;39936;51.058;17.220;2023-04-16T03:24:16;101507.03;;;5.41;100.00
54022;BME280;39936;51.058;17.220;2023-04-16T03:28:15;101509.27;;;5.40;100.00
54022;BME280;39936;51.058;17.220;2023-04-16T03:32:09;101514.70;;;5.41;100.00
54022;BME280;39936;51.058;17.220;2023-04-16T03:35:30;101517.77;;;5.48;100.00
54022;BME280;39936;51.058;17.220;2023-04-16T03:38:55;101520.78;;;5.54;100.00
54022;BME280;39936;51.058;17.220;2023-04-16T03:42:34;101497.83;;;5.42;100.00
54022;BME280;39936;51.058;17.220;2023-04-16T03:46:17;101533.05;;;5.64;100.00
54022;BME280;39936;51.058;17.220;2023-04-16T03:49:52;101535.19;;;5.67;100.00
54022;BME280;39936;51.058;17.220;2023-04-16T03:53:15;101540.34;;;5.63;100.00
54022;BME280;39936;51.058;17.220;2023-04-16T03:56:39;101541.76;;;5.56;100.00
54022;BME280;39936;51.058;17.220;2023-04-16T04:00:22;101549.93;;;5.48;100.00
54022;BME280;39936;51.058;17.220;2023-04-16T04:04:03;101559.55;;;5.36;100.00
54022;BME280;39936;51.058;17.220;2023-04-16T04:07:31;101562.44;;;5.30;100.00
54022;BME280;39936;51.058;17.220;2023-04-16T04:10:55;101561.98;;;5.28;100.00
54022;BME280;39936;51.058;17.220;2023-04-16T04:14:39;101568.51;;;5.47;100.00
54022;BME280;39936;51.058;17.220;2023-04-16T04:18:36;101565.59;;;5.65;100.00
54022;BME280;39936;51.058;17.220;2023-04-16T04:22:18;101560.97;;;5.73;100.00
54022;BME280;39936;51.058;17.220;2023-04-16T04:26:04;101568.33;;;5.76;100.00
54022;BME280;39936;51.058;17.220;2023-04-16T04:30:11;101566.15;;;5.70;100.00
54022;BME280;39936;51.058;17.220;2023-04-16T04:34:20;101570.34;;;5.70;100.00
54022;BME280;39936;51.058;17.220;2023-04-16T04:38:37;101571.45;;;5.76;100.00
54022;BME280;39936;51.058;17.220;2023-04-16T04:41:59;101572.44;;;5.92;100.00
54022;BME280;39936;51.058;17.220;2023-04-16T04:45:43;101573.98;;;6.08;100.00
54022;BME280;39936;51.058;17.220;2023-04-16T04:49:34;101576.30;;;6.24;100.00
54022;BME280;39936;51.058;17.220;2023-04-16T04:53:27;101580.40;;;6.45;100.00
54022;BME280;39936;51.058;17.220;2023-04-16T04:56:49;101584.08;;;6.65;100.00
54022;BME280;39936;51.058;17.220;2023-04-16T05:00:55;101559.51;;;6.62;100.00
54022;BME280;39936;51.058;17.220;2023-04-16T05:04:29;101559.07;;;6.64;100.00
54022;BME280;39936;51.058;17.220;2023-04-16T05:12:59;101591.47;;;6.81;100.00
54022;BME280;39936;51.058;17.220;2023-04-16T05:16:46;101600.02;;;6.86;100.00
54022;BME280;39936;51.058;17.220;2023-04-16T05:20:47;101610.89;;;6.92;100.00
54022;BME280;39936;51.058;17.220;2023-04-16T05:24:10;101615.07;;;7.01;100.00
54022;BME280;39936;51.058;17.220;2023-04-16T05:27:28;101615.00;;;7.07;100.00
54022;BME280;39936;51.058;17.220;2023-04-16T05:30:51;101614.92;;;7.16;100.00
54022;BME280;39936;51.058;17.220;2023-04-16T05:34:15;101613.91;;;7.27;100.00
54022;BME280;39936;51.058;17.220;2023-04-16T05:37:56;101615.94;;;7.50;100.00
54022;BME280;39936;51.058;17.220;2023-04-16T05:42:01;101622.04;;;7.82;100.00
54022;BME280;39936;51.058;17.220;2023-04-16T05:45:44;101620.05;;;8.24;100.00
54022;BME280;39936;51.058;17.220;2023-04-16T05:49:11;101628.67;;;8.54;100.00
54022;BME280;39936;51.058;17.220;2023-04-16T05:53:17;101610.20;;;8.64;100.00
54022;BME280;39936;51.058;17.220;2023-04-16T05:57:09;101647.20;;;9.20;100.00
54022;BME280;39936;51.058;17.220;2023-04-16T06:01:10;101640.93;;;9.42;100.00
54022;BME280;39936;51.058;17.220;2023-04-16T06:05:27;101642.00;;;9.56;100.00
54022;BME280;39936;51.058;17.220;2023-04-16T06:09:20;101645.91;;;9.53;100.00
54022;BME280;39936;51.058;17.220;2023-04-16T06:12:56;101653.58;;;9.69;100.00
54022;BME280;39936;51.058;17.220;2023-04-16T06:16:19;101651.64;;;9.85;100.00
54022;BME280;39936;51.058;17.220;2023-04-16T06:19:58;101655.25;;;10.09;100.00
54022;BME280;39936;51.058;17.220;2023-04-16T06:23:28;101646.15;;;9.96;100.00
54022;BME280;39936;51.058;17.220;2023-04-16T06:27:54;101661.74;;;10.09;100.00
54022;BME280;39936;51.058;17.220;2023-04-16T06:31:49;101666.69;;;10.01;100.00
54022;BME280;39936;51.058;17.220;2023-04-16T06:35:17;101639.63;;;10.07;100.00
54022;BME280;39936;51.058;17.220;2023-04-16T06:38:55;101666.94;;;10.17;100.00
54022;BME280;39936;51.058;17.220;2023-04-16T06:42:49;101641.68;;;9.91;99.83
54022;BME280;39936;51.058;17.220;2023-04-16T06:46:34;101663.35;;;10.32;99.13
54022;BME280;39936;51.058;17.220;2023-04-16T06:49:53;101671.35;;;10.51;96.77
54022;BME280;39936;51.058;17.220;2023-04-16T06:53:48;101646.09;;;10.07;98.54
54022;BME280;39936;51.058;17.220;2023-04-16T06:57:04;101667.30;;;10.58;100.00
54022;BME280;39936;51.058;17.220;2023-04-16T07:00:25;101659.74;;;10.48;93.48
54022;BME280;39936;51.058;17.220;2023-04-16T07:04:29;101664.05;;;10.83;96.55
54022;BME280;39936;51.058;17.220;2023-04-16T07:08:15;101668.75;;;11.36;92.01
54022;BME280;39936;51.058;17.220;2023-04-16T07:12:08;101643.86;;;11.13;90.07
54022;BME280;39936;51.058;17.220;2023-04-16T07:16:12;101682.60;;;11.37;87.80
54022;BME280;39936;51.058;17.220;2023-04-16T07:19:55;101691.62;;;11.18;87.65
54022;BME280;39936;51.058;17.220;2023-04-16T07:23:26;101686.60;;;11.35;88.88
54022;BME280;39936;51.058;17.220;2023-04-16T07:26:58;101684.18;;;11.78;89.40
54022;BME280;39936;51.058;17.220;2023-04-16T07:30:27;101689.85;;;12.22;88.58
54022;BME280;39936;51.058;17.220;2023-04-16T07:33:57;101665.59;;;12.37;84.82
54022;BME280;39936;51.058;17.220;2023-04-16T07:37:40;101664.81;;;12.51;83.72
54022;BME280;39936;51.058;17.220;2023-04-16T07:41:34;101693.84;;;12.62;81.48
54022;BME280;39936;51.058;17.220;2023-04-16T07:45:12;101698.73;;;12.38;80.77
54022;BME280;39936;51.058;17.220;2023-04-16T07:49:07;101703.23;;;12.16;81.36
54022;BME280;39936;51.058;17.220;2023-04-16T07:53:15;101707.87;;;12.19;82.22
54022;BME280;39936;51.058;17.220;2023-04-16T07:57:13;101697.16;;;12.02;82.61
54022;BME280;39936;51.058;17.220;2023-04-16T08:04:44;101711.30;;;12.26;82.42
54022;BME280;39936;51.058;17.220;2023-04-16T08:12:42;101708.17;;;12.14;80.39
54022;BME280;39936;51.058;17.220;2023-04-16T08:16:09;101706.96;;;12.11;80.21
54022;BME280;39936;51.058;17.220;2023-04-16T08:19:32;101707.77;;;12.11;82.26
54022;BME280;39936;51.058;17.220;2023-04-16T08:23:11;101703.70;;;12.32;81.01
54022;BME280;39936;51.058;17.220;2023-04-16T08:27:16;101707.07;;;12.38;83.89
54022;BME280;39936;51.058;17.220;2023-04-16T08:30:52;101719.55;;;12.35;83.06
54022;BME280;39936;51.058;17.220;2023-04-16T08:34:38;101726.52;;;12.37;83.61
54022;BME280;39936;51.058;17.220;2023-04-16T08:38:30;101714.73;;;12.12;79.83
54022;BME280;39936;51.058;17.220;2023-04-16T08:41:53;101733.66;;;12.30;79.95
54022;BME280;39936;51.058;17.220;2023-04-16T08:45:31;101707.16;;;12.21;78.79
54022;BME280;39936;51.058;17.220;2023-04-16T08:49:05;101746.74;;;12.31;77.33
54022;BME280;39936;51.058;17.220;2023-04-16T08:52:23;101753.77;;;12.21;73.00
54022;BME280;39936;51.058;17.220;2023-04-16T08:56:10;101749.06;;;12.14;72.44
54022;BME280;39936;51.058;17.220;2023-04-16T09:03:53;101747.23;;;12.64;74.39
54022;BME280;39936;51.058;17.220;2023-04-16T09:07:11;101746.34;;;13.07;73.31
54022;BME280;39936;51.058;17.220;2023-04-16T09:10:50;101740.79;;;13.57;69.80
54022;BME280;39936;51.058;17.220;2023-04-16T09:14:21;101738.27;;;13.64;68.75
54022;BME280;39936;51.058;17.220;2023-04-16T09:18:16;101725.26;;;13.54;64.57
54022;BME280;39936;51.058;17.220;2023-04-16T09:21:58;101739.15;;;13.59;67.54
54022;BME280;39936;51.058;17.220;2023-04-16T09:25:24;101740.33;;;13.60;69.71
54022;BME280;39936;51.058;17.220;2023-04-16T09:28:45;101740.30;;;13.90;69.62
54022;BME280;39936;51.058;17.220;2023-04-16T09:32:14;101755.13;;;14.10;67.24
54022;BME280;39936;51.058;17.220;2023-04-16T09:35:55;101751.13;;;13.33;66.86
54022;BME280;39936;51.058;17.220;2023-04-16T09:39:54;101759.22;;;13.47;68.02
54022;BME280;39936;51.058;17.220;2023-04-16T09:43:34;101762.85;;;13.51;64.08
54022;BME280;39936;51.058;17.220;2023-04-16T09:47:12;101763.37;;;13.07;64.35
54022;BME280;39936;51.058;17.220;2023-04-16T09:50:52;101768.82;;;13.34;65.55
54022;BME280;39936;51.058;17.220;2023-04-16T09:58:04;101764.16;;;14.07;66.02
54022;BME280;39936;51.058;17.220;2023-04-16T10:01:30;101765.82;;;14.30;64.16
54022;BME280;39936;51.058;17.220;2023-04-16T10:09:38;101765.00;;;14.21;66.52
54022;BME280;39936;51.058;17.220;2023-04-16T10:13:14;101766.37;;;13.57;63.65
54022;BME280;39936;51.058;17.220;2023-04-16T10:17:20;101760.20;;;13.44;63.65
54022;BME280;39936;51.058;17.220;2023-04-16T10:21:11;101763.31;;;13.63;63.10
54022;BME280;39936;51.058;17.220;2023-04-16T10:24:54;101750.03;;;13.50;64.65
54022;BME280;39936;51.058;17.220;2023-04-16T10:28:13;101765.72;;;13.65;63.01
54022;BME280;39936;51.058;17.220;2023-04-16T10:32:26;101764.19;;;13.93;63.45
54022;BME280;39936;51.058;17.220;2023-04-16T10:36:16;101768.76;;;14.12;62.10
54022;BME280;39936;51.058;17.220;2023-04-16T10:40:00;101771.53;;;14.49;61.03
54022;BME280;39936;51.058;17.220;2023-04-16T10:43:45;101768.76;;;14.50;59.98
54022;BME280;39936;51.058;17.220;2023-04-16T10:47:10;101766.26;;;14.95;61.72
54022;BME280;39936;51.058;17.220;2023-04-16T10:51:34;101766.31;;;14.89;57.94
54022;BME280;39936;51.058;17.220;2023-04-16T10:54:55;101770.51;;;14.64;57.63
54022;BME280;39936;51.058;17.220;2023-04-16T10:58:40;101772.95;;;14.50;58.45
54022;BME280;39936;51.058;17.220;2023-04-16T11:02:44;101775.42;;;14.35;60.29
54022;BME280;39936;51.058;17.220;2023-04-16T11:06:15;101764.96;;;14.42;60.01
54022;BME280;39936;51.058;17.220;2023-04-16T11:10:22;101768.33;;;14.43;57.92
54022;BME280;39936;51.058;17.220;2023-04-16T11:17:46;101776.93;;;14.41;58.80
54022;BME280;39936;51.058;17.220;2023-04-16T11:21:51;101777.73;;;14.36;61.93
54022;BME280;39936;51.058;17.220;2023-04-16T11:29:36;101781.12;;;13.16;62.06
54022;BME280;39936;51.058;17.220;2023-04-16T11:33:18;101779.67;;;13.28;64.07
54022;BME280;39936;51.058;17.220;2023-04-16T11:37:01;101778.78;;;13.61;65.91
54022;BME280;39936;51.058;17.220;2023-04-16T11:40:28;101781.38;;;13.74;63.37
54022;BME280;39936;51.058;17.220;2023-04-16T11:48:19;101778.56;;;14.17;59.99
54022;BME280;39936;51.058;17.220;2023-04-16T11:52:00;101781.96;;;14.20;58.51
54022;BME280;39936;51.058;17.220;2023-04-16T11:55:49;101784.82;;;14.13;60.36
54022;BME280;39936;51.058;17.220;2023-04-16T11:59:32;101784.92;;;14.00;58.12
54022;BME280;39936;51.058;17.220;2023-04-16T12:03:41;101783.92;;;14.19;58.22
54022;BME280;39936;51.058;17.220;2023-04-16T12:07:13;101782.66;;;14.56;60.30
54022;BME280;39936;51.058;17.220;2023-04-16T12:11:00;101785.51;;;14.28;57.93
54022;BME280;39936;51.058;17.220;2023-04-16T12:22:10;101780.80;;;14.60;58.58
54022;BME280;39936;51.058;17.220;2023-04-16T12:25:58;101776.09;;;14.77;58.53
54022;BME280;39936;51.058;17.220;2023-04-16T12:33:33;101784.83;;;14.07;61.37
54022;BME280;39936;51.058;17.220;2023-04-16T12:37:21;101786.77;;;13.93;64.61
54022;BME280;39936;51.058;17.220;2023-04-16T12:41:06;101780.08;;;14.09;63.46
54022;BME280;39936;51.058;17.220;2023-04-16T12:45:24;101787.28;;;13.89;62.82
54022;BME280;39936;51.058;17.220;2023-04-16T12:48:55;101786.69;;;13.55;64.79
54022;BME280;39936;51.058;17.220;2023-04-16T12:53:17;101784.98;;;13.66;64.32
54022;BME280;39936;51.058;17.220;2023-04-16T12:56:39;101783.84;;;13.76;62.89
54022;BME280;39936;51.058;17.220;2023-04-16T13:00:23;101764.13;;;13.61;62.79
54022;BME280;39936;51.058;17.220;2023-04-16T13:07:38;101762.61;;;13.92;63.57
54022;BME280;39936;51.058;17.220;2023-04-16T13:11:08;101779.68;;;14.01;65.11
54022;BME280;39936;51.058;17.220;2023-04-16T13:15:26;101780.02;;;13.77;62.95
54022;BME280;39936;51.058;17.220;2023-04-16T13:22:39;101776.27;;;13.89;64.66
54022;BME280;39936;51.058;17.220;2023-04-16T13:26:08;101772.05;;;14.12;61.89
54022;BME280;39936;51.058;17.220;2023-04-16T13:30:11;101738.37;;;13.95;60.10
54022;BME280;39936;51.058;17.220;2023-04-16T13:33:28;101768.81;;;14.08;60.90
54022;BME280;39936;51.058;17.220;2023-04-16T13:37:47;101756.15;;;14.41;61.27
54022;BME280;39936;51.058;17.220;2023-04-16T13:41:39;101758.51;;;14.91;59.50
54022;BME280;39936;51.058;17.220;2023-04-16T13:45:30;101760.95;;;14.88;59.09
54022;BME280;39936;51.058;17.220;2023-04-16T13:49:09;101763.99;;;14.55;59.80
54022;BME280;39936;51.058;17.220;2023-04-16T13:52:31;101755.96;;;14.74;56.97
54022;BME280;39936;51.058;17.220;2023-04-16T13:56:37;101752.69;;;15.00;59.33
54022;BME280;39936;51.058;17.220;2023-04-16T14:00:26;101741.70;;;15.42;57.94
54022;BME280;39936;51.058;17.220;2023-04-16T14:04:37;101746.94;;;15.55;56.03
54022;BME280;39936;51.058;17.220;2023-04-16T14:08:14;101749.50;;;15.64;53.90
54022;BME280;39936;51.058;17.220;2023-04-16T14:11:47;101747.77;;;15.53;54.47
54022;BME280;39936;51.058;17.220;2023-04-16T14:15:52;101744.24;;;15.76;55.44
54022;BME280;39936;51.058;17.220;2023-04-16T14:19:54;101739.86;;;16.17;53.73
54022;BME280;39936;51.058;17.220;2023-04-16T14:24:12;101739.24;;;16.22;51.37
54022;BME280;39936;51.058;17.220;2023-04-16T14:28:06;101740.05;;;16.16;51.77
54022;BME280;39936;51.058;17.220;2023-04-16T14:32:19;101739.24;;;16.06;53.27
54022;BME280;39936;51.058;17.220;2023-04-16T14:35:38;101748.42;;;16.15;53.82
54022;BME280;39936;51.058;17.220;2023-04-16T14:39:39;101739.95;;;16.12;53.20
54022;BME280;39936;51.058;17.220;2023-04-16T14:43:32;101744.12;;;16.04;52.72
54022;BME280;39936;51.058;17.220;2023-04-16T14:47:13;101746.30;;;15.95;53.06
54022;BME280;39936;51.058;17.220;2023-04-16T14:54:28;101739.89;;;16.17;52.66
54022;BME280;39936;51.058;17.220;2023-04-16T14:58:08;101748.31;;;16.21;52.71
54022;BME280;39936;51.058;17.220;2023-04-16T15:01:58;101746.85;;;16.12;50.90
54022;BME280;39936;51.058;17.220;2023-04-16T15:05:36;101752.87;;;15.83;52.17
54022;BME280;39936;51.058;17.220;2023-04-16T15:09:10;101757.63;;;15.52;52.50
54022;BME280;39936;51.058;17.220;2023-04-16T15:12:42;101755.05;;;15.40;52.31
54022;BME280;39936;51.058;17.220;2023-04-16T15:17:08;101752.41;;;15.53;51.85
54022;BME280;39936;51.058;17.220;2023-04-16T15:20:45;101739.31;;;15.53;51.95
54022;BME280;39936;51.058;17.220;2023-04-16T15:24:33;101755.71;;;15.57;52.30
54022;BME280;39936;51.058;17.220;2023-04-16T15:28:08;101748.41;;;15.36;52.85
54022;BME280;39936;51.058;17.220;2023-04-16T15:31:28;101763.49;;;15.35;53.16
54022;BME280;39936;51.058;17.220;2023-04-16T15:35:10;101770.29;;;15.18;54.60
54022;BME280;39936;51.058;17.220;2023-04-16T15:39:33;101771.60;;;14.99;54.89
54022;BME280;39936;51.058;17.220;2023-04-16T15:43:13;101776.46;;;14.80;55.01
54022;BME280;39936;51.058;17.220;2023-04-16T15:46:53;101777.38;;;14.75;56.90
54022;BME280;39936;51.058;17.220;2023-04-16T15:51:19;101781.84;;;14.70;56.44
54022;BME280;39936;51.058;17.220;2023-04-16T15:55:03;101761.64;;;14.43;58.48
54022;BME280;39936;51.058;17.220;2023-04-16T15:59:17;101783.46;;;14.43;57.86
54022;BME280;39936;51.058;17.220;2023-04-16T16:06:38;101787.02;;;14.27;58.07
54022;BME280;39936;51.058;17.220;2023-04-16T16:10:34;101785.65;;;14.22;58.39
54022;BME280;39936;51.058;17.220;2023-04-16T16:14:16;101779.05;;;14.17;59.43
54022;BME280;39936;51.058;17.220;2023-04-16T16:17:53;101789.16;;;14.22;59.92
54022;BME280;39936;51.058;17.220;2023-04-16T16:21:58;101790.48;;;14.20;60.14
54022;BME280;39936;51.058;17.220;2023-04-16T16:26:00;101788.90;;;14.13;60.25
54022;BME280;39936;51.058;17.220;2023-04-16T16:29:54;101793.60;;;14.09;61.00
54022;BME280;39936;51.058;17.220;2023-04-16T16:37:35;101801.40;;;13.93;61.76
54022;BME280;39936;51.058;17.220;2023-04-16T16:42:02;101805.03;;;13.83;62.32
54022;BME280;39936;51.058;17.220;2023-04-16T16:45:41;101807.81;;;13.71;61.36
54022;BME280;39936;51.058;17.220;2023-04-16T16:49:52;101815.40;;;13.59;59.82
54022;BME280;39936;51.058;17.220;2023-04-16T16:53:35;101816.44;;;13.49;59.67
54022;BME280;39936;51.058;17.220;2023-04-16T16:57:19;101819.16;;;13.44;60.03
54022;BME280;39936;51.058;17.220;2023-04-16T17:01:00;101824.50;;;13.40;60.84
54022;BME280;39936;51.058;17.220;2023-04-16T17:04:19;101823.17;;;13.27;61.11
54022;BME280;39936;51.058;17.220;2023-04-16T17:07:57;101833.13;;;13.27;60.82
54022;BME280;39936;51.058;17.220;2023-04-16T17:11:20;101834.61;;;13.23;62.26
54022;BME280;39936;51.058;17.220;2023-04-16T17:14:39;101840.59;;;13.17;62.98
54022;BME280;39936;51.058;17.220;2023-04-16T17:18:12;101844.35;;;13.07;65.55
54022;BME280;39936;51.058;17.220;2023-04-16T17:21:53;101846.96;;;12.96;65.60
54022;BME280;39936;51.058;17.220;2023-04-16T17:25:30;101847.37;;;12.82;65.88
54022;BME280;39936;51.058;17.220;2023-04-16T17:29:19;101833.30;;;12.63;66.16
54022;BME280;39936;51.058;17.220;2023-04-16T17:32:44;101853.87;;;12.62;70.07
54022;BME280;39936;51.058;17.220;2023-04-16T17:36:25;101857.09;;;12.53;71.26
54022;BME280;39936;51.058;17.220;2023-04-16T17:40:20;101859.91;;;12.43;74.33
54022;BME280;39936;51.058;17.220;2023-04-16T17:52:17;101886.12;;;11.89;74.75
54022;BME280;39936;51.058;17.220;2023-04-16T17:56:00;101874.13;;;11.53;74.73
54022;BME280;39936;51.058;17.220;2023-04-16T17:59:48;101903.22;;;11.62;74.69
54022;BME280;39936;51.058;17.220;2023-04-16T18:03:16;101910.55;;;11.61;74.67
54022;BME280;39936;51.058;17.220;2023-04-16T18:07:11;101908.80;;;11.42;76.51
54022;BME280;39936;51.058;17.220;2023-04-16T18:10:32;101923.27;;;11.45;76.60
54022;BME280;39936;51.058;17.220;2023-04-16T18:13:54;101919.31;;;11.40;75.79
54022;BME280;39936;51.058;17.220;2023-04-16T18:17:52;101935.09;;;11.44;75.95
54022;BME280;39936;51.058;17.220;2023-04-16T18:21:41;101929.38;;;11.40;75.76
54022;BME280;39936;51.058;17.220;2023-04-16T18:26:14;101951.27;;;11.52;76.47
54022;BME280;39936;51.058;17.220;2023-04-16T18:29:33;101954.96;;;11.61;77.11
54022;BME280;39936;51.058;17.220;2023-04-16T18:33:27;101957.24;;;11.24;81.60
54022;BME280;39936;51.058;17.220;2023-04-16T18:37:28;101961.05;;;11.03;83.23
54022;BME280;39936;51.058;17.220;2023-04-16T18:41:14;101963.98;;;10.94;83.19
54022;BME280;39936;51.058;17.220;2023-04-16T18:45:19;101950.90;;;10.78;83.36
54022;BME280;39936;51.058;17.220;2023-04-16T18:52:52;101972.27;;;11.00;81.94
54022;BME280;39936;51.058;17.220;2023-04-16T18:57:10;101972.33;;;11.05;81.50
54022;BME280;39936;51.058;17.220;2023-04-16T19:00:54;101976.77;;;11.06;82.18
54022;BME280;39936;51.058;17.220;2023-04-16T19:04:35;101980.27;;;11.09;82.21
54022;BME280;39936;51.058;17.220;2023-04-16T19:12:15;101987.80;;;10.69;88.10
54022;BME280;39936;51.058;17.220;2023-04-16T19:16:07;101991.00;;;10.49;93.35
54022;BME280;39936;51.058;17.220;2023-04-16T19:19:46;101994.84;;;10.29;97.43
54022;BME280;39936;51.058;17.220;2023-04-16T19:27:17;102004.21;;;10.15;98.50
54022;BME280;39936;51.058;17.220;2023-04-16T19:31:04;102008.29;;;10.23;97.59
54022;BME280;39936;51.058;17.220;2023-04-16T19:34:43;101983.81;;;10.13;96.78
54022;BME280;39936;51.058;17.220;2023-04-16T19:39:04;102011.39;;;10.30;96.45
54022;BME280;39936;51.058;17.220;2023-04-16T19:42:32;102015.34;;;10.16;96.40
54022;BME280;39936;51.058;17.220;2023-04-16T19:47:04;101981.99;;;9.95;96.26
54022;BME280;39936;51.058;17.220;2023-04-16T19:50:44;101991.48;;;9.89;97.91
54022;BME280;39936;51.058;17.220;2023-04-16T19:54:24;102023.43;;;10.04;97.60
54022;BME280;39936;51.058;17.220;2023-04-16T19:58:08;102027.01;;;10.02;97.96
54022;BME280;39936;51.058;17.220;2023-04-16T20:01:28;102036.06;;;9.91;100.00
54022;BME280;39936;51.058;17.220;2023-04-16T20:04:47;102033.97;;;9.91;100.00
54022;BME280;39936;51.058;17.220;2023-04-16T20:08:19;102039.20;;;9.82;100.00
54022;BME280;39936;51.058;17.220;2023-04-16T20:12:45;102041.34;;;9.69;98.59
54022;BME280;39936;51.058;17.220;2023-04-16T20:16:25;102027.32;;;9.66;100.00
54022;BME280;39936;51.058;17.220;2023-04-16T20:20:32;102030.00;;;9.67;100.00
54022;BME280;39936;51.058;17.220;2023-04-16T20:23:52;102033.07;;;9.45;100.00
54022;BME280;39936;51.058;17.220;2023-04-16T20:28:00;102032.97;;;9.40;100.00
54022;BME280;39936;51.058;17.220;2023-04-16T20:31:34;101995.01;;;9.20;100.00
54022;BME280;39936;51.058;17.220;2023-04-16T20:34:57;102031.92;;;9.40;100.00
54022;BME280;39936;51.058;17.220;2023-04-16T20:38:33;102028.90;;;9.39;100.00
54022;BME280;39936;51.058;17.220;2023-04-16T20:42:16;101993.76;;;9.19;100.00
54022;BME280;39936;51.058;17.220;2023-04-16T20:46:36;102009.40;;;9.32;100.00
54022;BME280;39936;51.058;17.220;2023-04-16T20:50:14;102021.54;;;9.33;100.00
54022;BME280;39936;51.058;17.220;2023-04-16T20:54:05;102025.38;;;9.26;100.00
54022;BME280;39936;51.058;17.220;2023-04-16T20:57:46;102024.16;;;9.16;100.00
54022;BME280;39936;51.058;17.220;2023-04-16T21:01:09;102023.20;;;9.16;100.00
54022;BME280;39936;51.058;17.220;2023-04-16T21:04:51;102027.17;;;9.22;100.00
54022;BME280;39936;51.058;17.220;2023-04-16T21:08:39;102031.48;;;9.24;100.00
54022;BME280;39936;51.058;17.220;2023-04-16T21:12:16;102032.49;;;9.21;100.00
54022;BME280;39936;51.058;17.220;2023-04-16T21:15:44;102032.09;;;9.26;100.00
54022;BME280;39936;51.058;17.220;2023-04-16T21:19:09;102031.64;;;9.33;100.00
54022;BME280;39936;51.058;17.220;2023-04-16T21:22:27;102032.78;;;9.41;100.00
54022;BME280;39936;51.058;17.220;2023-04-16T21:26:39;102028.53;;;9.44;100.00
54022;BME280;39936;51.058;17.220;2023-04-16T21:30:22;102027.47;;;9.51;100.00